<?xml version="1.0" encoding="UTF-8"?><gpx xmlns="http://www.topografix.com/GPX/1/1"  creator="TraceDeTrail http://www.tracedetrail.fr" version="1.1" xmlns:xsi="http://www.w3.org/2001/XMLSchema-instance" xsi:schemaLocation="http://www.topografix.com/GPX/1/1 http://www.topografix.com/GPX/1/1/gpx.xsd "><metadata><name>Le hameau du Seuil</name><link href="http://tracedetrail.fr/fr/trace/trace/130699"><text>methode de calcul : astergdem </text></link></metadata><trk><name>Le hameau du Seuil sur TraceDeTrail.fr</name><trkseg><trkpt lat="44.02108" lon="6.49586"><ele>994</ele><time>2000-01-01T01:08:09.000Z</time></trkpt><trkpt lat="44.02139" lon="6.4962"><ele>1010</ele><time>2000-01-01T01:08:19.000Z</time></trkpt><trkpt lat="44.02158" lon="6.49636"><ele>1013</ele><time>2000-01-01T01:08:29.000Z</time></trkpt><trkpt lat="44.02177" lon="6.49657"><ele>1013</ele><time>2000-01-01T01:08:39.000Z</time></trkpt><trkpt lat="44.02205" lon="6.49678"><ele>1012</ele><time>2000-01-01T01:08:49.000Z</time></trkpt><trkpt lat="44.02229" lon="6.49688"><ele>1012</ele><time>2000-01-01T01:08:59.000Z</time></trkpt><trkpt lat="44.02255" lon="6.497"><ele>1017</ele><time>2000-01-01T01:09:09.000Z</time></trkpt><trkpt lat="44.02279" lon="6.49709"><ele>1022</ele><time>2000-01-01T01:09:19.000Z</time></trkpt><trkpt lat="44.02288" lon="6.49714"><time>2000-01-01T01:09:29.000Z</time></trkpt><trkpt lat="44.02284" lon="6.49716"><time>2000-01-01T01:09:39.000Z</time></trkpt><trkpt lat="44.02245" lon="6.49715"><ele>1021</ele><time>2000-01-01T01:09:49.000Z</time></trkpt><trkpt lat="44.0221" lon="6.49707"><ele>1021</ele><time>2000-01-01T01:09:59.000Z</time></trkpt><trkpt lat="44.02182" lon="6.49702"><ele>1041</ele><time>2000-01-01T01:10:09.000Z</time></trkpt><trkpt lat="44.02141" lon="6.49695"><ele>1041</ele><time>2000-01-01T01:10:19.000Z</time></trkpt><trkpt lat="44.02126" lon="6.49696"><time>2000-01-01T01:10:29.000Z</time></trkpt><trkpt lat="44.02158" lon="6.49744"><ele>1060</ele><time>2000-01-01T01:10:39.000Z</time></trkpt><trkpt lat="44.02186" lon="6.4977"><ele>1058</ele><time>2000-01-01T01:10:49.000Z</time></trkpt><trkpt lat="44.02215" lon="6.49797"><ele>1067</ele><time>2000-01-01T01:10:59.000Z</time></trkpt><trkpt lat="44.02255" lon="6.49835"><ele>1076</ele><time>2000-01-01T01:11:09.000Z</time></trkpt><trkpt lat="44.02257" lon="6.49841"><time>2000-01-01T01:11:19.000Z</time></trkpt><trkpt lat="44.02242" lon="6.4984"><ele>1076</ele><time>2000-01-01T01:11:29.000Z</time></trkpt><trkpt lat="44.02214" lon="6.49828"><ele>1088</ele><time>2000-01-01T01:11:39.000Z</time></trkpt><trkpt lat="44.02187" lon="6.49825"><ele>1092</ele><time>2000-01-01T01:11:49.000Z</time></trkpt><trkpt lat="44.02153" lon="6.4982"><ele>1096</ele><time>2000-01-01T01:11:59.000Z</time></trkpt><trkpt lat="44.02145" lon="6.49823"><time>2000-01-01T01:12:09.000Z</time></trkpt><trkpt lat="44.02143" lon="6.49828"><time>2000-01-01T01:12:19.000Z</time></trkpt><trkpt lat="44.02148" lon="6.49838"><ele>1096</ele><time>2000-01-01T01:12:29.000Z</time></trkpt><trkpt lat="44.02173" lon="6.4986"><ele>1099</ele><time>2000-01-01T01:12:39.000Z</time></trkpt><trkpt lat="44.02211" lon="6.49892"><ele>1102</ele><time>2000-01-01T01:12:49.000Z</time></trkpt><trkpt lat="44.02222" lon="6.49903"><time>2000-01-01T01:12:59.000Z</time></trkpt><trkpt lat="44.02228" lon="6.49907"><ele>1102</ele><time>2000-01-01T01:13:09.000Z</time></trkpt><trkpt lat="44.02224" lon="6.49909"><time>2000-01-01T01:13:19.000Z</time></trkpt><trkpt lat="44.02217" lon="6.4991"><time>2000-01-01T01:13:29.000Z</time></trkpt><trkpt lat="44.02161" lon="6.499"><ele>1111</ele><time>2000-01-01T01:13:39.000Z</time></trkpt><trkpt lat="44.02139" lon="6.49902"><ele>1121</ele><time>2000-01-01T01:13:49.000Z</time></trkpt><trkpt lat="44.02137" lon="6.49908"><time>2000-01-01T01:13:59.000Z</time></trkpt><trkpt lat="44.02142" lon="6.49916"><time>2000-01-01T01:14:09.000Z</time></trkpt><trkpt lat="44.0221" lon="6.4996"><ele>1138</ele><time>2000-01-01T01:14:19.000Z</time></trkpt><trkpt lat="44.02216" lon="6.49968"><time>2000-01-01T01:14:29.000Z</time></trkpt><trkpt lat="44.02219" lon="6.49973"><time>2000-01-01T01:14:39.000Z</time></trkpt><trkpt lat="44.02214" lon="6.49973"><time>2000-01-01T01:14:49.000Z</time></trkpt><trkpt lat="44.02158" lon="6.49958"><ele>1155</ele><time>2000-01-01T01:14:59.000Z</time></trkpt><trkpt lat="44.02144" lon="6.49955"><time>2000-01-01T01:15:09.000Z</time></trkpt><trkpt lat="44.02134" lon="6.49954"><ele>1155</ele><time>2000-01-01T01:15:19.000Z</time></trkpt><trkpt lat="44.0213" lon="6.49963"><time>2000-01-01T01:15:29.000Z</time></trkpt><trkpt lat="44.02143" lon="6.49972"><ele>1166</ele><time>2000-01-01T01:15:39.000Z</time></trkpt><trkpt lat="44.02153" lon="6.49976"><time>2000-01-01T01:15:49.000Z</time></trkpt><trkpt lat="44.02156" lon="6.4998"><time>2000-01-01T01:15:59.000Z</time></trkpt><trkpt lat="44.02151" lon="6.49984"><ele>1166</ele><time>2000-01-01T01:16:09.000Z</time></trkpt><trkpt lat="44.02144" lon="6.49986"><time>2000-01-01T01:16:19.000Z</time></trkpt><trkpt lat="44.02133" lon="6.4999"><time>2000-01-01T01:16:29.000Z</time></trkpt><trkpt lat="44.0213" lon="6.49996"><ele>1168</ele><time>2000-01-01T01:16:39.000Z</time></trkpt><trkpt lat="44.02136" lon="6.49999"><time>2000-01-01T01:16:49.000Z</time></trkpt><trkpt lat="44.02146" lon="6.50003"><time>2000-01-01T01:16:59.000Z</time></trkpt><trkpt lat="44.0217" lon="6.50007"><ele>1175</ele><time>2000-01-01T01:17:09.000Z</time></trkpt><trkpt lat="44.02174" lon="6.5001"><time>2000-01-01T01:17:19.000Z</time></trkpt><trkpt lat="44.02167" lon="6.50015"><time>2000-01-01T01:17:29.000Z</time></trkpt><trkpt lat="44.02147" lon="6.50031"><ele>1181</ele><time>2000-01-01T01:17:39.000Z</time></trkpt><trkpt lat="44.02149" lon="6.50037"><time>2000-01-01T01:17:49.000Z</time></trkpt><trkpt lat="44.0217" lon="6.50047"><ele>1187</ele><time>2000-01-01T01:17:59.000Z</time></trkpt><trkpt lat="44.02179" lon="6.5005"><time>2000-01-01T01:18:09.000Z</time></trkpt><trkpt lat="44.02179" lon="6.50055"><time>2000-01-01T01:18:19.000Z</time></trkpt><trkpt lat="44.02163" lon="6.50059"><ele>1190</ele><time>2000-01-01T01:18:29.000Z</time></trkpt><trkpt lat="44.02122" lon="6.50074"><ele>1187</ele><time>2000-01-01T01:18:39.000Z</time></trkpt><trkpt lat="44.02095" lon="6.50095"><ele>1191</ele><time>2000-01-01T01:18:49.000Z</time></trkpt><trkpt lat="44.02086" lon="6.5011"><time>2000-01-01T01:18:59.000Z</time></trkpt><trkpt lat="44.02088" lon="6.50116"><time>2000-01-01T01:19:09.000Z</time></trkpt><trkpt lat="44.02096" lon="6.50116"><ele>1195</ele><time>2000-01-01T01:19:19.000Z</time></trkpt><trkpt lat="44.02103" lon="6.50114"><time>2000-01-01T01:19:29.000Z</time></trkpt><trkpt lat="44.0211" lon="6.50114"><time>2000-01-01T01:19:39.000Z</time></trkpt><trkpt lat="44.02111" lon="6.50121"><ele>1207</ele><time>2000-01-01T01:19:49.000Z</time></trkpt><trkpt lat="44.02109" lon="6.50134"><time>2000-01-01T01:19:59.000Z</time></trkpt><trkpt lat="44.02096" lon="6.50171"><ele>1212</ele><time>2000-01-01T01:20:09.000Z</time></trkpt><trkpt lat="44.02093" lon="6.50198"><ele>1217</ele><time>2000-01-01T01:20:19.000Z</time></trkpt><trkpt lat="44.02096" lon="6.50213"><time>2000-01-01T01:20:29.000Z</time></trkpt><trkpt lat="44.02135" lon="6.50135"><ele>1220</ele><time>2000-01-01T01:20:39.000Z</time></trkpt><trkpt lat="44.02148" lon="6.50112"><ele>1223</ele><time>2000-01-01T01:20:49.000Z</time></trkpt><trkpt lat="44.02165" lon="6.50115"><time>2000-01-01T01:20:59.000Z</time></trkpt><trkpt lat="44.02206" lon="6.5015"><ele>1244</ele><time>2000-01-01T01:21:09.000Z</time></trkpt><trkpt lat="44.02235" lon="6.50189"><ele>1253</ele><time>2000-01-01T01:21:19.000Z</time></trkpt><trkpt lat="44.02264" lon="6.50243"><ele>1265</ele><time>2000-01-01T01:21:29.000Z</time></trkpt><trkpt lat="44.02293" lon="6.50286"><ele>1267</ele><time>2000-01-01T01:21:39.000Z</time></trkpt><trkpt lat="44.02294" lon="6.50294"><time>2000-01-01T01:21:49.000Z</time></trkpt><trkpt lat="44.0229" lon="6.50307"><time>2000-01-01T01:21:59.000Z</time></trkpt><trkpt lat="44.02292" lon="6.50309"><time>2000-01-01T01:22:09.000Z</time></trkpt><trkpt lat="44.02253" lon="6.50295"><ele>1270</ele><time>2000-01-01T01:22:19.000Z</time></trkpt><trkpt lat="44.02239" lon="6.5029"><time>2000-01-01T01:22:29.000Z</time></trkpt><trkpt lat="44.02235" lon="6.5029"><time>2000-01-01T01:22:39.000Z</time></trkpt><trkpt lat="44.02229" lon="6.50311"><ele>1273</ele><time>2000-01-01T01:22:49.000Z</time></trkpt><trkpt lat="44.02218" lon="6.50345"><ele>1277</ele><time>2000-01-01T01:22:59.000Z</time></trkpt><trkpt lat="44.02218" lon="6.50384"><ele>1287</ele><time>2000-01-01T01:23:09.000Z</time></trkpt><trkpt lat="44.02218" lon="6.50442"><ele>1291</ele><time>2000-01-01T01:23:19.000Z</time></trkpt><trkpt lat="44.02238" lon="6.50495"><ele>1292</ele><time>2000-01-01T01:23:29.000Z</time></trkpt><trkpt lat="44.02241" lon="6.50549"><ele>1296</ele><time>2000-01-01T01:23:39.000Z</time></trkpt><trkpt lat="44.0224" lon="6.5058"><ele>1295</ele><time>2000-01-01T01:23:49.000Z</time></trkpt><trkpt lat="44.0224" lon="6.50589"><time>2000-01-01T01:23:59.000Z</time></trkpt><trkpt lat="44.0223" lon="6.50595"><time>2000-01-01T01:24:09.000Z</time></trkpt><trkpt lat="44.02224" lon="6.50616"><ele>1295</ele><time>2000-01-01T01:24:19.000Z</time></trkpt><trkpt lat="44.02215" lon="6.50654"><ele>1295</ele><time>2000-01-01T01:24:29.000Z</time></trkpt><trkpt lat="44.02202" lon="6.50709"><ele>1285</ele><time>2000-01-01T01:24:39.000Z</time></trkpt><trkpt lat="44.02187" lon="6.50742"><ele>1279</ele><time>2000-01-01T01:24:49.000Z</time></trkpt><trkpt lat="44.02164" lon="6.50769"><ele>1279</ele><time>2000-01-01T01:24:59.000Z</time></trkpt><trkpt lat="44.02139" lon="6.50791"><ele>1280</ele><time>2000-01-01T01:25:09.000Z</time></trkpt><trkpt lat="44.02097" lon="6.50829"><ele>1281</ele><time>2000-01-01T01:25:19.000Z</time></trkpt><trkpt lat="44.02066" lon="6.50866"><ele>1279</ele><time>2000-01-01T01:25:29.000Z</time></trkpt><trkpt lat="44.0203" lon="6.50902"><ele>1282</ele><time>2000-01-01T01:25:39.000Z</time></trkpt><trkpt lat="44.02005" lon="6.50916"><ele>1283</ele><time>2000-01-01T01:25:49.000Z</time></trkpt><trkpt lat="44.01979" lon="6.50921"><ele>1285</ele><time>2000-01-01T01:25:59.000Z</time></trkpt><trkpt lat="44.0195" lon="6.50925"><ele>1287</ele><time>2000-01-01T01:26:09.000Z</time></trkpt><trkpt lat="44.0193" lon="6.50946"><ele>1303</ele><time>2000-01-01T01:26:19.000Z</time></trkpt><trkpt lat="44.01914" lon="6.50958"><time>2000-01-01T01:26:29.000Z</time></trkpt><trkpt lat="44.01899" lon="6.50948"><ele>1304</ele><time>2000-01-01T01:26:39.000Z</time></trkpt><trkpt lat="44.01889" lon="6.50921"><ele>1299</ele><time>2000-01-01T01:26:49.000Z</time></trkpt><trkpt lat="44.01883" lon="6.50894"><ele>1297</ele><time>2000-01-01T01:26:59.000Z</time></trkpt><trkpt lat="44.01858" lon="6.50872"><ele>1295</ele><time>2000-01-01T01:27:09.000Z</time></trkpt><trkpt lat="44.01835" lon="6.50842"><ele>1295</ele><time>2000-01-01T01:27:19.000Z</time></trkpt><trkpt lat="44.01827" lon="6.50805"><ele>1290</ele><time>2000-01-01T01:27:29.000Z</time></trkpt><trkpt lat="44.01814" lon="6.50754"><ele>1288</ele><time>2000-01-01T01:27:39.000Z</time></trkpt><trkpt lat="44.01791" lon="6.50713"><ele>1285</ele><time>2000-01-01T01:27:49.000Z</time></trkpt><trkpt lat="44.01756" lon="6.50697"><ele>1279</ele><time>2000-01-01T01:27:59.000Z</time></trkpt><trkpt lat="44.01729" lon="6.50694"><ele>1274</ele><time>2000-01-01T01:28:09.000Z</time></trkpt><trkpt lat="44.01701" lon="6.50703"><ele>1273</ele><time>2000-01-01T01:28:19.000Z</time></trkpt><trkpt lat="44.01672" lon="6.50709"><ele>1273</ele><time>2000-01-01T01:28:29.000Z</time></trkpt><trkpt lat="44.01641" lon="6.50712"><ele>1274</ele><time>2000-01-01T01:28:39.000Z</time></trkpt><trkpt lat="44.01612" lon="6.50716"><ele>1272</ele><time>2000-01-01T01:28:49.000Z</time></trkpt><trkpt lat="44.01599" lon="6.5072"><time>2000-01-01T01:28:59.000Z</time></trkpt><trkpt lat="44.0159" lon="6.50721"><ele>1273</ele><time>2000-01-01T01:29:09.000Z</time></trkpt><trkpt lat="44.01596" lon="6.50709"><time>2000-01-01T01:29:19.000Z</time></trkpt><trkpt lat="44.01612" lon="6.50691"><ele>1275</ele><time>2000-01-01T01:29:29.000Z</time></trkpt><trkpt lat="44.01627" lon="6.5067"><ele>1270</ele><time>2000-01-01T01:29:39.000Z</time></trkpt><trkpt lat="44.01663" lon="6.50641"><ele>1266</ele><time>2000-01-01T01:29:49.000Z</time></trkpt><trkpt lat="44.01687" lon="6.50604"><ele>1263</ele><time>2000-01-01T01:29:59.000Z</time></trkpt><trkpt lat="44.01703" lon="6.50588"><ele>1262</ele><time>2000-01-01T01:30:09.000Z</time></trkpt><trkpt lat="44.01721" lon="6.50581"><time>2000-01-01T01:30:19.000Z</time></trkpt><trkpt lat="44.01749" lon="6.50585"><ele>1261</ele><time>2000-01-01T01:30:29.000Z</time></trkpt><trkpt lat="44.01769" lon="6.50589"><ele>1261</ele><time>2000-01-01T01:30:39.000Z</time></trkpt><trkpt lat="44.01785" lon="6.50588"><time>2000-01-01T01:30:49.000Z</time></trkpt><trkpt lat="44.01782" lon="6.5058"><ele>1259</ele><time>2000-01-01T01:30:59.000Z</time></trkpt><trkpt lat="44.0177" lon="6.50567"><time>2000-01-01T01:31:09.000Z</time></trkpt><trkpt lat="44.01756" lon="6.50547"><ele>1257</ele><time>2000-01-01T01:31:19.000Z</time></trkpt><trkpt lat="44.01763" lon="6.50547"><time>2000-01-01T01:31:29.000Z</time></trkpt><trkpt lat="44.01778" lon="6.50555"><ele>1251</ele><time>2000-01-01T01:31:39.000Z</time></trkpt><trkpt lat="44.01786" lon="6.50557"><time>2000-01-01T01:31:49.000Z</time></trkpt><trkpt lat="44.01792" lon="6.50557"><time>2000-01-01T01:31:59.000Z</time></trkpt><trkpt lat="44.01784" lon="6.50544"><ele>1249</ele><time>2000-01-01T01:32:09.000Z</time></trkpt><trkpt lat="44.01756" lon="6.50512"><ele>1248</ele><time>2000-01-01T01:32:19.000Z</time></trkpt><trkpt lat="44.01742" lon="6.5049"><ele>1240</ele><time>2000-01-01T01:32:29.000Z</time></trkpt><trkpt lat="44.01737" lon="6.50482"><time>2000-01-01T01:32:39.000Z</time></trkpt><trkpt lat="44.01743" lon="6.50483"><time>2000-01-01T01:32:49.000Z</time></trkpt><trkpt lat="44.01752" lon="6.50488"><ele>1240</ele><time>2000-01-01T01:32:59.000Z</time></trkpt><trkpt lat="44.01762" lon="6.50491"><time>2000-01-01T01:33:09.000Z</time></trkpt><trkpt lat="44.01765" lon="6.50483"><time>2000-01-01T01:33:19.000Z</time></trkpt><trkpt lat="44.01763" lon="6.50467"><ele>1240</ele><time>2000-01-01T01:33:29.000Z</time></trkpt><trkpt lat="44.01767" lon="6.50467"><time>2000-01-01T01:33:39.000Z</time></trkpt><trkpt lat="44.01775" lon="6.50482"><time>2000-01-01T01:33:49.000Z</time></trkpt><trkpt lat="44.01784" lon="6.50497"><ele>1237</ele><time>2000-01-01T01:33:59.000Z</time></trkpt><trkpt lat="44.01789" lon="6.50497"><time>2000-01-01T01:34:09.000Z</time></trkpt><trkpt lat="44.01791" lon="6.50493"><time>2000-01-01T01:34:19.000Z</time></trkpt><trkpt lat="44.01798" lon="6.50503"><time>2000-01-01T01:34:29.000Z</time></trkpt><trkpt lat="44.01804" lon="6.50507"><ele>1234</ele><time>2000-01-01T01:34:39.000Z</time></trkpt><trkpt lat="44.01804" lon="6.50494"><time>2000-01-01T01:34:49.000Z</time></trkpt><trkpt lat="44.01796" lon="6.50476"><ele>1232</ele><time>2000-01-01T01:34:59.000Z</time></trkpt><trkpt lat="44.01786" lon="6.50461"><time>2000-01-01T01:35:09.000Z</time></trkpt><trkpt lat="44.0179" lon="6.50459"><time>2000-01-01T01:35:19.000Z</time></trkpt><trkpt lat="44.01806" lon="6.50482"><ele>1217</ele><time>2000-01-01T01:35:29.000Z</time></trkpt><trkpt lat="44.01816" lon="6.50486"><time>2000-01-01T01:35:39.000Z</time></trkpt><trkpt lat="44.01817" lon="6.50484"><time>2000-01-01T01:35:49.000Z</time></trkpt><trkpt lat="44.01811" lon="6.50469"><ele>1217</ele><time>2000-01-01T01:35:59.000Z</time></trkpt><trkpt lat="44.01802" lon="6.50456"><time>2000-01-01T01:36:09.000Z</time></trkpt><trkpt lat="44.01794" lon="6.50438"><ele>1211</ele><time>2000-01-01T01:36:19.000Z</time></trkpt><trkpt lat="44.018" lon="6.50439"><time>2000-01-01T01:36:29.000Z</time></trkpt><trkpt lat="44.01813" lon="6.50453"><ele>1206</ele><time>2000-01-01T01:36:39.000Z</time></trkpt><trkpt lat="44.01822" lon="6.50458"><time>2000-01-01T01:36:49.000Z</time></trkpt><trkpt lat="44.01818" lon="6.50435"><ele>1201</ele><time>2000-01-01T01:36:59.000Z</time></trkpt><trkpt lat="44.01796" lon="6.50407"><ele>1196</ele><time>2000-01-01T01:37:09.000Z</time></trkpt><trkpt lat="44.01771" lon="6.50372"><ele>1196</ele><time>2000-01-01T01:37:19.000Z</time></trkpt><trkpt lat="44.01777" lon="6.50374"><time>2000-01-01T01:37:29.000Z</time></trkpt><trkpt lat="44.01793" lon="6.50382"><ele>1196</ele><time>2000-01-01T01:37:39.000Z</time></trkpt><trkpt lat="44.01813" lon="6.50404"><ele>1183</ele><time>2000-01-01T01:37:49.000Z</time></trkpt><trkpt lat="44.01829" lon="6.50411"><time>2000-01-01T01:37:59.000Z</time></trkpt><trkpt lat="44.01835" lon="6.50412"><ele>1179</ele><time>2000-01-01T01:38:09.000Z</time></trkpt><trkpt lat="44.01831" lon="6.50403"><time>2000-01-01T01:38:19.000Z</time></trkpt><trkpt lat="44.01801" lon="6.50375"><ele>1183</ele><time>2000-01-01T01:38:29.000Z</time></trkpt><trkpt lat="44.01778" lon="6.50362"><ele>1183</ele><time>2000-01-01T01:38:39.000Z</time></trkpt><trkpt lat="44.01765" lon="6.50342"><time>2000-01-01T01:38:49.000Z</time></trkpt><trkpt lat="44.01769" lon="6.50334"><ele>1183</ele><time>2000-01-01T01:38:59.000Z</time></trkpt><trkpt lat="44.0178" lon="6.50337"><time>2000-01-01T01:39:09.000Z</time></trkpt><trkpt lat="44.01797" lon="6.50343"><ele>1181</ele><time>2000-01-01T01:39:19.000Z</time></trkpt><trkpt lat="44.0182" lon="6.50368"><ele>1169</ele><time>2000-01-01T01:39:29.000Z</time></trkpt><trkpt lat="44.01855" lon="6.50414"><ele>1157</ele><time>2000-01-01T01:39:39.000Z</time></trkpt><trkpt lat="44.01865" lon="6.50435"><time>2000-01-01T01:39:49.000Z</time></trkpt><trkpt lat="44.0187" lon="6.50438"><ele>1157</ele><time>2000-01-01T01:39:59.000Z</time></trkpt><trkpt lat="44.01869" lon="6.50423"><time>2000-01-01T01:40:09.000Z</time></trkpt><trkpt lat="44.01839" lon="6.50358"><ele>1155</ele><time>2000-01-01T01:40:19.000Z</time></trkpt><trkpt lat="44.01821" lon="6.50306"><ele>1136</ele><time>2000-01-01T01:40:29.000Z</time></trkpt><trkpt lat="44.01821" lon="6.50291"><time>2000-01-01T01:40:39.000Z</time></trkpt><trkpt lat="44.01831" lon="6.50303"><ele>1136</ele><time>2000-01-01T01:40:49.000Z</time></trkpt><trkpt lat="44.01849" lon="6.50333"><ele>1136</ele><time>2000-01-01T01:40:59.000Z</time></trkpt><trkpt lat="44.0186" lon="6.50365"><ele>1137</ele><time>2000-01-01T01:41:09.000Z</time></trkpt><trkpt lat="44.01872" lon="6.50399"><ele>1140</ele><time>2000-01-01T01:41:19.000Z</time></trkpt><trkpt lat="44.01886" lon="6.50433"><ele>1144</ele><time>2000-01-01T01:41:29.000Z</time></trkpt><trkpt lat="44.01902" lon="6.50464"><ele>1173</ele><time>2000-01-01T01:41:39.000Z</time></trkpt><trkpt lat="44.01924" lon="6.50505"><ele>1172</ele><time>2000-01-01T01:41:49.000Z</time></trkpt><trkpt lat="44.01928" lon="6.50505"><time>2000-01-01T01:41:59.000Z</time></trkpt><trkpt lat="44.01934" lon="6.50503"><time>2000-01-01T01:42:09.000Z</time></trkpt><trkpt lat="44.01937" lon="6.50498"><time>2000-01-01T01:42:19.000Z</time></trkpt><trkpt lat="44.01937" lon="6.50487"><ele>1172</ele><time>2000-01-01T01:42:29.000Z</time></trkpt><trkpt lat="44.01942" lon="6.50484"><time>2000-01-01T01:42:39.000Z</time></trkpt><trkpt lat="44.01944" lon="6.50469"><time>2000-01-01T01:42:49.000Z</time></trkpt><trkpt lat="44.01945" lon="6.50437"><ele>1172</ele><time>2000-01-01T01:42:59.000Z</time></trkpt><trkpt lat="44.01951" lon="6.50444"><time>2000-01-01T01:43:09.000Z</time></trkpt><trkpt lat="44.01957" lon="6.50452"><time>2000-01-01T01:43:19.000Z</time></trkpt><trkpt lat="44.01962" lon="6.50451"><ele>1154</ele><time>2000-01-01T01:43:29.000Z</time></trkpt><trkpt lat="44.01959" lon="6.50409"><ele>1157</ele><time>2000-01-01T01:43:39.000Z</time></trkpt><trkpt lat="44.01962" lon="6.50381"><ele>1160</ele><time>2000-01-01T01:43:49.000Z</time></trkpt><trkpt lat="44.01968" lon="6.50373"><time>2000-01-01T01:43:59.000Z</time></trkpt><trkpt lat="44.01976" lon="6.50371"><time>2000-01-01T01:44:09.000Z</time></trkpt><trkpt lat="44.01976" lon="6.50382"><ele>1160</ele><time>2000-01-01T01:44:19.000Z</time></trkpt><trkpt lat="44.0198" lon="6.50394"><time>2000-01-01T01:44:29.000Z</time></trkpt><trkpt lat="44.01981" lon="6.50395"><time>2000-01-01T01:44:39.000Z</time></trkpt><trkpt lat="44.01986" lon="6.5039"><time>2000-01-01T01:44:49.000Z</time></trkpt><trkpt lat="44.02006" lon="6.5034"><ele>1162</ele><time>2000-01-01T01:44:59.000Z</time></trkpt><trkpt lat="44.01998" lon="6.50281"><ele>1165</ele><time>2000-01-01T01:45:09.000Z</time></trkpt><trkpt lat="44.02007" lon="6.50292"><time>2000-01-01T01:45:19.000Z</time></trkpt><trkpt lat="44.0201" lon="6.50319"><ele>1167</ele><time>2000-01-01T01:45:29.000Z</time></trkpt><trkpt lat="44.02025" lon="6.50363"><ele>1167</ele><time>2000-01-01T01:45:39.000Z</time></trkpt><trkpt lat="44.02019" lon="6.50301"><ele>1167</ele><time>2000-01-01T01:45:49.000Z</time></trkpt><trkpt lat="44.02018" lon="6.50276"><time>2000-01-01T01:45:59.000Z</time></trkpt><trkpt lat="44.02033" lon="6.50258"><ele>1174</ele><time>2000-01-01T01:46:09.000Z</time></trkpt><trkpt lat="44.02045" lon="6.50221"><ele>1182</ele><time>2000-01-01T01:46:19.000Z</time></trkpt><trkpt lat="44.02065" lon="6.50181"><ele>1198</ele><time>2000-01-01T01:46:29.000Z</time></trkpt><trkpt lat="44.02089" lon="6.50146"><ele>1205</ele><time>2000-01-01T01:46:39.000Z</time></trkpt><trkpt lat="44.02109" lon="6.50134"><ele>1206</ele><time>2000-01-01T01:46:49.000Z</time></trkpt><trkpt lat="44.02111" lon="6.50121"><time>2000-01-01T01:46:59.000Z</time></trkpt><trkpt lat="44.0211" lon="6.50114"><time>2000-01-01T01:47:09.000Z</time></trkpt><trkpt lat="44.02103" lon="6.50114"><ele>1200</ele><time>2000-01-01T01:47:19.000Z</time></trkpt><trkpt lat="44.02096" lon="6.50116"><time>2000-01-01T01:47:29.000Z</time></trkpt><trkpt lat="44.02088" lon="6.50116"><time>2000-01-01T01:47:39.000Z</time></trkpt><trkpt lat="44.02086" lon="6.5011"><ele>1195</ele><time>2000-01-01T01:47:49.000Z</time></trkpt><trkpt lat="44.02095" lon="6.50095"><time>2000-01-01T01:47:59.000Z</time></trkpt><trkpt lat="44.02122" lon="6.50074"><ele>1200</ele><time>2000-01-01T01:48:09.000Z</time></trkpt><trkpt lat="44.02163" lon="6.50059"><ele>1193</ele><time>2000-01-01T01:48:19.000Z</time></trkpt><trkpt lat="44.02179" lon="6.50055"><time>2000-01-01T01:48:29.000Z</time></trkpt><trkpt lat="44.02179" lon="6.5005"><ele>1187</ele><time>2000-01-01T01:48:39.000Z</time></trkpt><trkpt lat="44.0217" lon="6.50047"><time>2000-01-01T01:48:49.000Z</time></trkpt><trkpt lat="44.02149" lon="6.50037"><ele>1181</ele><time>2000-01-01T01:48:59.000Z</time></trkpt><trkpt lat="44.02147" lon="6.50031"><time>2000-01-01T01:49:09.000Z</time></trkpt><trkpt lat="44.02167" lon="6.50015"><ele>1175</ele><time>2000-01-01T01:49:19.000Z</time></trkpt><trkpt lat="44.02174" lon="6.5001"><time>2000-01-01T01:49:29.000Z</time></trkpt><trkpt lat="44.0217" lon="6.50007"><time>2000-01-01T01:49:39.000Z</time></trkpt><trkpt lat="44.02146" lon="6.50003"><ele>1175</ele><time>2000-01-01T01:49:49.000Z</time></trkpt><trkpt lat="44.02136" lon="6.49999"><time>2000-01-01T01:49:59.000Z</time></trkpt><trkpt lat="44.0213" lon="6.49996"><time>2000-01-01T01:50:09.000Z</time></trkpt><trkpt lat="44.02133" lon="6.4999"><ele>1175</ele><time>2000-01-01T01:50:19.000Z</time></trkpt><trkpt lat="44.02144" lon="6.49986"><time>2000-01-01T01:50:29.000Z</time></trkpt><trkpt lat="44.02151" lon="6.49984"><time>2000-01-01T01:50:39.000Z</time></trkpt><trkpt lat="44.02156" lon="6.4998"><ele>1166</ele><time>2000-01-01T01:50:49.000Z</time></trkpt><trkpt lat="44.02153" lon="6.49976"><time>2000-01-01T01:50:59.000Z</time></trkpt><trkpt lat="44.02143" lon="6.49972"><time>2000-01-01T01:51:09.000Z</time></trkpt><trkpt lat="44.0213" lon="6.49963"><ele>1159</ele><time>2000-01-01T01:51:19.000Z</time></trkpt><trkpt lat="44.02134" lon="6.49954"><time>2000-01-01T01:51:29.000Z</time></trkpt><trkpt lat="44.02144" lon="6.49955"><time>2000-01-01T01:51:39.000Z</time></trkpt><trkpt lat="44.02158" lon="6.49958"><ele>1162</ele><time>2000-01-01T01:51:49.000Z</time></trkpt><trkpt lat="44.02183" lon="6.49965"><ele>1153</ele><time>2000-01-01T01:51:59.000Z</time></trkpt><trkpt lat="44.02214" lon="6.49973"><ele>1145</ele><time>2000-01-01T01:52:09.000Z</time></trkpt><trkpt lat="44.02219" lon="6.49973"><time>2000-01-01T01:52:19.000Z</time></trkpt><trkpt lat="44.02216" lon="6.49968"><time>2000-01-01T01:52:29.000Z</time></trkpt><trkpt lat="44.0221" lon="6.4996"><time>2000-01-01T01:52:39.000Z</time></trkpt><trkpt lat="44.02142" lon="6.49916"><ele>1137</ele><time>2000-01-01T01:52:49.000Z</time></trkpt><trkpt lat="44.02137" lon="6.49908"><time>2000-01-01T01:52:59.000Z</time></trkpt><trkpt lat="44.02139" lon="6.49902"><time>2000-01-01T01:53:09.000Z</time></trkpt><trkpt lat="44.02161" lon="6.499"><ele>1123</ele><time>2000-01-01T01:53:19.000Z</time></trkpt><trkpt lat="44.02187" lon="6.49904"><ele>1123</ele><time>2000-01-01T01:53:29.000Z</time></trkpt><trkpt lat="44.02217" lon="6.4991"><ele>1113</ele><time>2000-01-01T01:53:39.000Z</time></trkpt><trkpt lat="44.02224" lon="6.49909"><time>2000-01-01T01:53:49.000Z</time></trkpt><trkpt lat="44.02228" lon="6.49907"><time>2000-01-01T01:53:59.000Z</time></trkpt><trkpt lat="44.02222" lon="6.49903"><time>2000-01-01T01:54:09.000Z</time></trkpt><trkpt lat="44.02211" lon="6.49892"><ele>1111</ele><time>2000-01-01T01:54:19.000Z</time></trkpt><trkpt lat="44.02186" lon="6.49871"><ele>1110</ele><time>2000-01-01T01:54:29.000Z</time></trkpt><trkpt lat="44.02148" lon="6.49838"><ele>1096</ele><time>2000-01-01T01:54:39.000Z</time></trkpt><trkpt lat="44.02143" lon="6.49828"><time>2000-01-01T01:54:49.000Z</time></trkpt><trkpt lat="44.02145" lon="6.49823"><time>2000-01-01T01:54:59.000Z</time></trkpt><trkpt lat="44.02153" lon="6.4982"><ele>1096</ele><time>2000-01-01T01:55:09.000Z</time></trkpt><trkpt lat="44.0218" lon="6.49824"><ele>1092</ele><time>2000-01-01T01:55:19.000Z</time></trkpt><trkpt lat="44.02214" lon="6.49828"><ele>1088</ele><time>2000-01-01T01:55:29.000Z</time></trkpt><trkpt lat="44.02242" lon="6.4984"><ele>1076</ele><time>2000-01-01T01:55:39.000Z</time></trkpt><trkpt lat="44.02257" lon="6.49841"><time>2000-01-01T01:55:49.000Z</time></trkpt><trkpt lat="44.02255" lon="6.49835"><ele>1076</ele><time>2000-01-01T01:55:59.000Z</time></trkpt><trkpt lat="44.02227" lon="6.49808"><ele>1076</ele><time>2000-01-01T01:56:09.000Z</time></trkpt><trkpt lat="44.02198" lon="6.49782"><ele>1071</ele><time>2000-01-01T01:56:19.000Z</time></trkpt><trkpt lat="44.02158" lon="6.49744"><ele>1060</ele><time>2000-01-01T01:56:29.000Z</time></trkpt><trkpt lat="44.02126" lon="6.49696"><ele>1041</ele><time>2000-01-01T01:56:39.000Z</time></trkpt><trkpt lat="44.02141" lon="6.49695"><time>2000-01-01T01:56:49.000Z</time></trkpt><trkpt lat="44.0221" lon="6.49707"><ele>1034</ele><time>2000-01-01T01:56:59.000Z</time></trkpt><trkpt lat="44.02245" lon="6.49715"><ele>1032</ele><time>2000-01-01T01:57:09.000Z</time></trkpt><trkpt lat="44.02284" lon="6.49716"><ele>1030</ele><time>2000-01-01T01:57:19.000Z</time></trkpt><trkpt lat="44.02288" lon="6.49714"><time>2000-01-01T01:57:29.000Z</time></trkpt><trkpt lat="44.02279" lon="6.49709"><time>2000-01-01T01:57:39.000Z</time></trkpt><trkpt lat="44.02255" lon="6.497"><ele>1023</ele><time>2000-01-01T01:57:49.000Z</time></trkpt><trkpt lat="44.02231" lon="6.49689"><ele>1018</ele><time>2000-01-01T01:57:59.000Z</time></trkpt><trkpt lat="44.02205" lon="6.49678"><ele>1017</ele><time>2000-01-01T01:58:09.000Z</time></trkpt><trkpt lat="44.02177" lon="6.49657"><ele>1018</ele><time>2000-01-01T01:58:19.000Z</time></trkpt><trkpt lat="44.02158" lon="6.49636"><ele>1014</ele><time>2000-01-01T01:58:29.000Z</time></trkpt><trkpt lat="44.02139" lon="6.4962"><ele>1010</ele><time>2000-01-01T01:58:39.000Z</time></trkpt><trkpt lat="44.02108" lon="6.49586"><ele>994</ele><time>2000-01-01T01:58:49.000Z</time></trkpt></trkseg></trk></gpx>